sensor_id;sensor_type;location;lat;lon;timestamp;pressure;altitude;pressure_sealevel;temperature;humidity
10806;BME280;5455;53.224;6.000;2022-08-01T00:00:48;101590.13;;;20.38;100.00
10806;BME280;5455;53.224;6.000;2022-08-01T00:03:15;101590.53;;;20.36;100.00
10806;BME280;5455;53.224;6.000;2022-08-01T00:05:42;101584.94;;;20.36;100.00
10806;BME280;5455;53.224;6.000;2022-08-01T00:08:11;101585.34;;;20.31;100.00
10806;BME280;5455;53.224;6.000;2022-08-01T00:10:37;101586.56;;;20.33;100.00
10806;BME280;5455;53.224;6.000;2022-08-01T00:13:05;101590.19;;;20.27;100.00
10806;BME280;5455;53.224;6.000;2022-08-01T00:15:32;101589.75;;;20.25;100.00
10806;BME280;5455;53.224;6.000;2022-08-01T00:17:59;101592.56;;;20.21;100.00
10806;BME280;5455;53.224;6.000;2022-08-01T00:20:26;101594.16;;;20.19;100.00
10806;BME280;5455;53.224;6.000;2022-08-01T00:22:53;101589.38;;;20.19;100.00
10806;BME280;5455;53.224;6.000;2022-08-01T00:25:20;101601.78;;;20.18;100.00
10806;BME280;5455;53.224;6.000;2022-08-01T00:27:59;101593.41;;;20.18;100.00
10806;BME280;5455;53.224;6.000;2022-08-01T00:30:26;101605.78;;;20.21;100.00
10806;BME280;5455;53.224;6.000;2022-08-01T00:33:07;101605.78;;;20.21;100.00
10806;BME280;5455;53.224;6.000;2022-08-01T00:35:35;101613.81;;;20.15;100.00
10806;BME280;5455;53.224;6.000;2022-08-01T00:38:02;101600.63;;;20.05;100.00
10806;BME280;5455;53.224;6.000;2022-08-01T00:40:29;101601.44;;;19.99;100.00
10806;BME280;5455;53.224;6.000;2022-08-01T00:42:56;101604.69;;;19.94;100.00
10806;BME280;5455;53.224;6.000;2022-08-01T00:45:23;101605.88;;;19.93;100.00
10806;BME280;5455;53.224;6.000;2022-08-01T00:47:51;101600.69;;;19.88;100.00
10806;BME280;5455;53.224;6.000;2022-08-01T00:50:21;101609.91;;;19.85;100.00
10806;BME280;5455;53.224;6.000;2022-08-01T00:52:50;101605.09;;;19.82;100.00
10806;BME280;5455;53.224;6.000;2022-08-01T00:55:18;101598.31;;;19.79;100.00
10806;BME280;5455;53.224;6.000;2022-08-01T00:57:46;101601.94;;;19.76;100.00
10806;BME280;5455;53.224;6.000;2022-08-01T01:00:29;101604.31;;;19.77;100.00
10806;BME280;5455;53.224;6.000;2022-08-01T01:03:00;101609.91;;;19.81;100.00
10806;BME280;5455;53.224;6.000;2022-08-01T01:05:27;101604.31;;;19.77;100.00
10806;BME280;5455;53.224;6.000;2022-08-01T01:08:09;101610.31;;;19.79;100.00
10806;BME280;5455;53.224;6.000;2022-08-01T01:11:11;101609.91;;;19.77;100.00
10806;BME280;5455;53.224;6.000;2022-08-01T01:13:47;101615.50;;;19.74;100.00
10806;BME280;5455;53.224;6.000;2022-08-01T01:16:18;101605.91;;;19.71;100.00
10806;BME280;5455;53.224;6.000;2022-08-01T01:18:51;101607.13;;;19.74;100.00
10806;BME280;5455;53.224;6.000;2022-08-01T01:27:02;101599.13;;;19.72;100.00
10806;BME280;5455;53.224;6.000;2022-08-01T01:32:33;101614.69;;;19.77;100.00
10806;BME280;5455;53.224;6.000;2022-08-01T01:35:06;101619.91;;;19.78;100.00
10806;BME280;5455;53.224;6.000;2022-08-01T01:37:35;101621.09;;;19.81;100.00
10806;BME280;5455;53.224;6.000;2022-08-01T01:40:05;101620.28;;;19.80;100.00
10806;BME280;5455;53.224;6.000;2022-08-01T01:42:33;101631.09;;;19.82;100.00
10806;BME280;5455;53.224;6.000;2022-08-01T01:45:02;101627.91;;;19.76;100.00
10806;BME280;5455;53.224;6.000;2022-08-01T01:47:31;101630.72;;;19.76;100.00
10806;BME280;5455;53.224;6.000;2022-08-01T01:49:59;101625.91;;;19.77;100.00
10806;BME280;5455;53.224;6.000;2022-08-01T01:52:27;101623.13;;;19.73;100.00
10806;BME280;5455;53.224;6.000;2022-08-01T01:54:56;101625.50;;;19.71;100.00
10806;BME280;5455;53.224;6.000;2022-08-01T01:57:26;101627.94;;;19.69;100.00
10806;BME280;5455;53.224;6.000;2022-08-01T01:59:55;101630.34;;;19.67;100.00
10806;BME280;5455;53.224;6.000;2022-08-01T02:02:23;101635.50;;;19.65;100.00
10806;BME280;5455;53.224;6.000;2022-08-01T02:04:51;101634.31;;;19.63;100.00
10806;BME280;5455;53.224;6.000;2022-08-01T02:07:22;101634.75;;;19.54;100.00
10806;BME280;5455;53.224;6.000;2022-08-01T02:09:51;101637.16;;;19.52;100.00
10806;BME280;5455;53.224;6.000;2022-08-01T02:12:20;101639.94;;;19.52;100.00
10806;BME280;5455;53.224;6.000;2022-08-01T02:14:49;101645.53;;;19.49;100.00
10806;BME280;5455;53.224;6.000;2022-08-01T02:17:20;101644.72;;;19.41;100.00
10806;BME280;5455;53.224;6.000;2022-08-01T02:19:47;101646.72;;;19.41;100.00
10806;BME280;5455;53.224;6.000;2022-08-01T02:22:27;101641.13;;;19.41;100.00
10806;BME280;5455;53.224;6.000;2022-08-01T02:25:00;101646.72;;;19.44;100.00
10806;BME280;5455;53.224;6.000;2022-08-01T02:27:40;101640.34;;;19.40;100.00
10806;BME280;5455;53.224;6.000;2022-08-01T02:30:12;101640.31;;;19.44;100.00
10806;BME280;5455;53.224;6.000;2022-08-01T02:32:49;101639.13;;;19.41;100.00
10806;BME280;5455;53.224;6.000;2022-08-01T02:35:22;101638.75;;;19.39;100.00
10806;BME280;5455;53.224;6.000;2022-08-01T02:37:51;101642.34;;;19.40;100.00
10806;BME280;5455;53.224;6.000;2022-08-01T02:40:20;101634.75;;;19.40;100.00
10806;BME280;5455;53.224;6.000;2022-08-01T02:42:50;101633.53;;;19.41;100.00
10806;BME280;5455;53.224;6.000;2022-08-01T02:45:19;101647.13;;;19.39;100.00
10806;BME280;5455;53.224;6.000;2022-08-01T02:47:48;101643.09;;;19.33;100.00
10806;BME280;5455;53.224;6.000;2022-08-01T02:50:17;101640.72;;;19.32;100.00
10806;BME280;5455;53.224;6.000;2022-08-01T02:52:48;101649.13;;;19.32;100.00
10806;BME280;5455;53.224;6.000;2022-08-01T02:55:18;101647.88;;;19.29;100.00
10806;BME280;5455;53.224;6.000;2022-08-01T02:57:47;101653.09;;;19.27;100.00
10806;BME280;5455;53.224;6.000;2022-08-01T03:00:18;101658.69;;;19.27;100.00
10806;BME280;5455;53.224;6.000;2022-08-01T03:02:52;101661.09;;;19.29;100.00
10806;BME280;5455;53.224;6.000;2022-08-01T03:05:22;101671.06;;;19.26;100.00
10806;BME280;5455;53.224;6.000;2022-08-01T03:07:51;101666.28;;;19.26;100.00
10806;BME280;5455;53.224;6.000;2022-08-01T03:10:21;101669.50;;;19.29;100.00
10806;BME280;5455;53.224;6.000;2022-08-01T03:12:49;101673.84;;;19.26;100.00
10806;BME280;5455;53.224;6.000;2022-08-01T03:15:18;101679.06;;;19.24;100.00
10806;BME280;5455;53.224;6.000;2022-08-01T03:17:49;101677.88;;;19.21;100.00
10806;BME280;5455;53.224;6.000;2022-08-01T03:20:20;101677.06;;;19.21;100.00
10806;BME280;5455;53.224;6.000;2022-08-01T03:22:48;101682.66;;;19.24;100.00
10806;BME280;5455;53.224;6.000;2022-08-01T03:25:20;101683.44;;;19.21;100.00
10806;BME280;5455;53.224;6.000;2022-08-01T03:27:54;101681.44;;;19.18;100.00
10806;BME280;5455;53.224;6.000;2022-08-01T03:30:26;101676.25;;;19.20;100.00
10806;BME280;5455;53.224;6.000;2022-08-01T03:32:53;101673.88;;;19.19;100.00
10806;BME280;5455;53.224;6.000;2022-08-01T03:35:21;101682.25;;;19.19;100.00
10806;BME280;5455;53.224;6.000;2022-08-01T03:37:54;101680.25;;;19.16;100.00
10806;BME280;5455;53.224;6.000;2022-08-01T03:40:53;101677.44;;;19.12;100.00
10806;BME280;5455;53.224;6.000;2022-08-01T03:43:32;101685.81;;;19.05;100.00
10806;BME280;5455;53.224;6.000;2022-08-01T03:46:04;101685.81;;;19.02;100.00
10806;BME280;5455;53.224;6.000;2022-08-01T03:48:38;101685.00;;;18.98;100.00
10806;BME280;5455;53.224;6.000;2022-08-01T03:51:07;101699.38;;;18.96;100.00
10806;BME280;5455;53.224;6.000;2022-08-01T03:53:35;101693.75;;;18.93;100.00
10806;BME280;5455;53.224;6.000;2022-08-01T03:56:07;101701.38;;;18.92;100.00
10806;BME280;5455;53.224;6.000;2022-08-01T03:58:39;101702.94;;;18.90;100.00
10806;BME280;5455;53.224;6.000;2022-08-01T04:01:07;101702.56;;;18.91;100.00
10806;BME280;5455;53.224;6.000;2022-08-01T04:03:42;101706.53;;;18.90;100.00
10806;BME280;5455;53.224;6.000;2022-08-01T04:06:10;101712.94;;;18.91;100.00
10806;BME280;5455;53.224;6.000;2022-08-01T04:08:38;101709.75;;;18.92;100.00
10806;BME280;5455;53.224;6.000;2022-08-01T04:11:08;101714.13;;;18.90;100.00
10806;BME280;5455;53.224;6.000;2022-08-01T04:13:35;101712.97;;;18.94;100.00
10806;BME280;5455;53.224;6.000;2022-08-01T04:16:04;101717.34;;;18.92;100.00
10806;BME280;5455;53.224;6.000;2022-08-01T04:18:31;101703.31;;;18.81;100.00
10806;BME280;5455;53.224;6.000;2022-08-01T04:20:58;101708.91;;;18.81;100.00
10806;BME280;5455;53.224;6.000;2022-08-01T04:23:27;101712.53;;;18.85;100.00
10806;BME280;5455;53.224;6.000;2022-08-01T04:25:57;101713.34;;;18.86;100.00
10806;BME280;5455;53.224;6.000;2022-08-01T04:28:25;101718.13;;;18.89;100.00
10806;BME280;5455;53.224;6.000;2022-08-01T04:30:54;101717.72;;;18.87;100.00
10806;BME280;5455;53.224;6.000;2022-08-01T04:33:29;101718.53;;;18.91;100.00
10806;BME280;5455;53.224;6.000;2022-08-01T04:35:59;101726.53;;;18.89;100.00
10806;BME280;5455;53.224;6.000;2022-08-01T04:38:32;101727.69;;;18.88;100.00
10806;BME280;5455;53.224;6.000;2022-08-01T04:41:00;101736.50;;;18.97;100.00
10806;BME280;5455;53.224;6.000;2022-08-01T04:43:38;101737.31;;;18.97;99.93
10806;BME280;5455;53.224;6.000;2022-08-01T04:46:06;101745.31;;;18.99;99.36
10806;BME280;5455;53.224;6.000;2022-08-01T04:48:36;101746.09;;;18.96;99.22
10806;BME280;5455;53.224;6.000;2022-08-01T04:51:04;101757.28;;;18.96;99.02
10806;BME280;5455;53.224;6.000;2022-08-01T04:53:31;101759.63;;;18.87;98.47
10806;BME280;5455;53.224;6.000;2022-08-01T04:55:59;101761.66;;;18.86;98.37
10806;BME280;5455;53.224;6.000;2022-08-01T04:58:26;101767.22;;;18.90;98.56
10806;BME280;5455;53.224;6.000;2022-08-01T05:00:52;101774.44;;;18.91;98.57
10806;BME280;5455;53.224;6.000;2022-08-01T05:03:20;101773.63;;;18.90;98.51
10806;BME280;5455;53.224;6.000;2022-08-01T05:05:47;101772.44;;;18.91;98.43
10806;BME280;5455;53.224;6.000;2022-08-01T05:08:15;101768.47;;;18.92;98.44
10806;BME280;5455;53.224;6.000;2022-08-01T05:10:42;101775.22;;;18.88;98.82
10806;BME280;5455;53.224;6.000;2022-08-01T05:13:09;101772.84;;;18.97;98.87
10806;BME280;5455;53.224;6.000;2022-08-01T05:15:37;101780.06;;;19.01;98.37
10806;BME280;5455;53.224;6.000;2022-08-01T05:18:04;101792.81;;;18.99;98.47
10806;BME280;5455;53.224;6.000;2022-08-01T05:20:34;101800.88;;;19.07;98.48
10806;BME280;5455;53.224;6.000;2022-08-01T05:23:01;101791.25;;;19.08;98.27
10806;BME280;5455;53.224;6.000;2022-08-01T05:25:28;101792.84;;;19.06;97.85
10806;BME280;5455;53.224;6.000;2022-08-01T05:28:15;101790.06;;;19.06;97.27
10806;BME280;5455;53.224;6.000;2022-08-01T05:30:45;101784.88;;;19.01;96.88
10806;BME280;5455;53.224;6.000;2022-08-01T05:33:12;101790.47;;;19.04;96.30
10806;BME280;5455;53.224;6.000;2022-08-01T05:35:39;101786.88;;;19.07;95.70
10806;BME280;5455;53.224;6.000;2022-08-01T05:38:15;101791.28;;;19.12;95.72
10806;BME280;5455;53.224;6.000;2022-08-01T05:40:43;101790.09;;;19.13;95.67
10806;BME280;5455;53.224;6.000;2022-08-01T05:43:10;101795.31;;;19.21;94.87
10806;BME280;5455;53.224;6.000;2022-08-01T05:45:37;101804.91;;;19.24;94.89
10806;BME280;5455;53.224;6.000;2022-08-01T05:48:04;101802.53;;;19.33;94.89
10806;BME280;5455;53.224;6.000;2022-08-01T05:50:32;101802.59;;;19.40;94.10
10806;BME280;5455;53.224;6.000;2022-08-01T05:52:59;101811.81;;;19.55;94.39
10806;BME280;5455;53.224;6.000;2022-08-01T05:55:26;101815.41;;;19.59;93.42
10806;BME280;5455;53.224;6.000;2022-08-01T05:57:53;101814.63;;;19.65;92.75
10806;BME280;5455;53.224;6.000;2022-08-01T06:00:20;101818.22;;;19.69;92.13
10806;BME280;5455;53.224;6.000;2022-08-01T06:02:47;101809.44;;;19.78;92.44
10806;BME280;5455;53.224;6.000;2022-08-01T06:05:15;101810.22;;;19.75;91.52
10806;BME280;5455;53.224;6.000;2022-08-01T06:07:42;101817.44;;;19.79;90.31
10806;BME280;5455;53.224;6.000;2022-08-01T06:10:09;101821.44;;;19.78;89.87
10806;BME280;5455;53.224;6.000;2022-08-01T06:12:36;101821.84;;;20.02;90.15
10806;BME280;5455;53.224;6.000;2022-08-01T06:15:04;101825.06;;;19.83;88.38
10806;BME280;5455;53.224;6.000;2022-08-01T06:17:32;101819.03;;;20.02;88.75
10806;BME280;5455;53.224;6.000;2022-08-01T06:19:59;101831.06;;;20.06;87.64
10806;BME280;5455;53.224;6.000;2022-08-01T06:22:26;101835.84;;;20.19;88.17
10806;BME280;5455;53.224;6.000;2022-08-01T06:24:53;101829.03;;;20.13;86.78
10806;BME280;5455;53.224;6.000;2022-08-01T06:27:20;101827.44;;;20.19;86.19
10806;BME280;5455;53.224;6.000;2022-08-01T06:29:48;101822.69;;;20.30;85.68
10806;BME280;5455;53.224;6.000;2022-08-01T06:32:20;101824.25;;;20.42;85.72
10806;BME280;5455;53.224;6.000;2022-08-01T06:34:54;101826.63;;;20.58;85.15
10806;BME280;5455;53.224;6.000;2022-08-01T06:37:22;101831.44;;;20.50;84.07
10806;BME280;5455;53.224;6.000;2022-08-01T06:39:49;101839.06;;;20.32;83.49
10806;BME280;5455;53.224;6.000;2022-08-01T06:42:16;101838.66;;;20.02;84.19
10806;BME280;5455;53.224;6.000;2022-08-01T06:44:45;101837.03;;;19.87;84.16
10806;BME280;5455;53.224;6.000;2022-08-01T06:47:12;101848.66;;;19.85;84.08
10806;BME280;5455;53.224;6.000;2022-08-01T06:49:39;101847.41;;;19.86;83.46
10806;BME280;5455;53.224;6.000;2022-08-01T06:52:07;101851.44;;;19.82;83.37
10806;BME280;5455;53.224;6.000;2022-08-01T06:54:35;101849.81;;;19.77;83.84
10806;BME280;5455;53.224;6.000;2022-08-01T06:57:05;101847.03;;;19.73;83.52
10806;BME280;5455;53.224;6.000;2022-08-01T06:59:32;101853.06;;;20.00;83.35
10806;BME280;5455;53.224;6.000;2022-08-01T07:01:59;101857.44;;;19.94;82.41
10806;BME280;5455;53.224;6.000;2022-08-01T07:04:28;101852.25;;;20.21;83.35
10806;BME280;5455;53.224;6.000;2022-08-01T07:06:56;101860.25;;;20.51;80.95
10806;BME280;5455;53.224;6.000;2022-08-01T07:09:23;101858.25;;;20.58;77.92
10806;BME280;5455;53.224;6.000;2022-08-01T07:11:50;101864.66;;;20.69;77.24
10806;BME280;5455;53.224;6.000;2022-08-01T07:14:20;101852.25;;;20.67;77.21
10806;BME280;5455;53.224;6.000;2022-08-01T07:16:48;101857.84;;;20.49;77.77
10806;BME280;5455;53.224;6.000;2022-08-01T07:19:16;101857.88;;;20.24;77.24
10806;BME280;5455;53.224;6.000;2022-08-01T07:21:43;101871.44;;;20.01;79.27
10806;BME280;5455;53.224;6.000;2022-08-01T07:24:12;101866.66;;;20.02;79.65
10806;BME280;5455;53.224;6.000;2022-08-01T07:26:43;101863.47;;;20.03;79.00
10806;BME280;5455;53.224;6.000;2022-08-01T07:29:24;101870.66;;;20.01;77.62
10806;BME280;5455;53.224;6.000;2022-08-01T07:31:53;101862.66;;;20.13;79.15
10806;BME280;5455;53.224;6.000;2022-08-01T07:34:21;101878.66;;;20.16;77.19
10806;BME280;5455;53.224;6.000;2022-08-01T07:36:50;101872.25;;;20.19;77.23
10806;BME280;5455;53.224;6.000;2022-08-01T07:39:17;101869.84;;;20.14;77.67
10806;BME280;5455;53.224;6.000;2022-08-01T07:41:44;101867.44;;;20.02;77.73
10806;BME280;5455;53.224;6.000;2022-08-01T07:44:31;101874.25;;;20.05;78.30
10806;BME280;5455;53.224;6.000;2022-08-01T07:46:59;101875.47;;;20.18;78.35
10806;BME280;5455;53.224;6.000;2022-08-01T07:49:26;101880.25;;;20.07;76.78
10806;BME280;5455;53.224;6.000;2022-08-01T07:51:55;101887.06;;;20.16;76.82
10806;BME280;5455;53.224;6.000;2022-08-01T07:54:31;101885.09;;;20.45;76.03
10806;BME280;5455;53.224;6.000;2022-08-01T07:57:01;101884.28;;;20.55;75.21
10806;BME280;5455;53.224;6.000;2022-08-01T07:59:28;101901.88;;;20.24;73.40
10806;BME280;5455;53.224;6.000;2022-08-01T08:01:55;101901.47;;;20.15;74.96
10806;BME280;5455;53.224;6.000;2022-08-01T08:04:22;101897.44;;;20.16;75.79
10806;BME280;5455;53.224;6.000;2022-08-01T08:06:50;101899.47;;;20.19;76.32
10806;BME280;5455;53.224;6.000;2022-08-01T08:09:17;101903.91;;;20.27;76.02
10806;BME280;5455;53.224;6.000;2022-08-01T08:11:46;101907.06;;;20.08;75.79
10806;BME280;5455;53.224;6.000;2022-08-01T08:14:15;101909.06;;;20.07;75.22
10806;BME280;5455;53.224;6.000;2022-08-01T08:16:43;101904.69;;;20.24;74.70
10806;BME280;5455;53.224;6.000;2022-08-01T08:19:11;101918.72;;;20.38;75.30
10806;BME280;5455;53.224;6.000;2022-08-01T08:21:38;101912.72;;;20.50;75.25
10806;BME280;5455;53.224;6.000;2022-08-01T08:24:06;101903.88;;;20.69;72.05
10806;BME280;5455;53.224;6.000;2022-08-01T08:26:57;101923.91;;;20.54;69.58
10806;BME280;5455;53.224;6.000;2022-08-01T08:29:26;101912.31;;;20.66;72.14
10806;BME280;5455;53.224;6.000;2022-08-01T08:31:53;101925.06;;;21.06;70.79
10806;BME280;5455;53.224;6.000;2022-08-01T08:34:25;101925.47;;;20.94;68.25
10806;BME280;5455;53.224;6.000;2022-08-01T08:36:54;101932.25;;;21.07;70.34
10806;BME280;5455;53.224;6.000;2022-08-01T08:39:24;101927.84;;;21.09;70.27
10806;BME280;5455;53.224;6.000;2022-08-01T08:41:51;101931.44;;;21.17;69.68
10806;BME280;5455;53.224;6.000;2022-08-01T08:44:19;101926.59;;;21.31;68.38
10806;BME280;5455;53.224;6.000;2022-08-01T08:46:49;101936.91;;;21.63;66.98
10806;BME280;5455;53.224;6.000;2022-08-01T08:49:23;101934.53;;;21.51;65.97
10806;BME280;5455;53.224;6.000;2022-08-01T08:51:51;101935.00;;;21.35;65.83
10806;BME280;5455;53.224;6.000;2022-08-01T08:54:22;101942.63;;;21.27;65.39
10806;BME280;5455;53.224;6.000;2022-08-01T08:56:58;101937.88;;;21.21;66.89
10806;BME280;5455;53.224;6.000;2022-08-01T08:59:26;101934.09;;;21.59;66.84
10806;BME280;5455;53.224;6.000;2022-08-01T09:01:55;101943.97;;;21.95;64.20
10806;BME280;5455;53.224;6.000;2022-08-01T09:04:24;101945.88;;;22.06;62.36
10806;BME280;5455;53.224;6.000;2022-08-01T09:06:53;101955.97;;;22.00;60.67
10806;BME280;5455;53.224;6.000;2022-08-01T09:09:22;101954.41;;;21.91;61.06
10806;BME280;5455;53.224;6.000;2022-08-01T09:11:49;101958.56;;;21.62;61.90
10806;BME280;5455;53.224;6.000;2022-08-01T09:14:24;101961.41;;;21.48;62.75
10806;BME280;5455;53.224;6.000;2022-08-01T09:17:02;101967.88;;;21.31;62.21
10806;BME280;5455;53.224;6.000;2022-08-01T09:22:09;101969.41;;;21.53;61.74
10806;BME280;5455;53.224;6.000;2022-08-01T09:24:37;101971.78;;;21.65;63.08
10806;BME280;5455;53.224;6.000;2022-08-01T09:27:19;101968.06;;;21.86;61.35
10806;BME280;5455;53.224;6.000;2022-08-01T09:29:49;101965.97;;;22.08;59.88
10806;BME280;5455;53.224;6.000;2022-08-01T09:32:30;101963.25;;;21.86;58.66
10806;BME280;5455;53.224;6.000;2022-08-01T09:35:23;101987.44;;;21.56;57.13
10806;BME280;5455;53.224;6.000;2022-08-01T09:40:57;101983.00;;;21.62;58.86
10806;BME280;5455;53.224;6.000;2022-08-01T09:43:27;101974.97;;;21.67;58.14
10806;BME280;5455;53.224;6.000;2022-08-01T09:45:55;101974.66;;;21.40;59.36
10806;BME280;5455;53.224;6.000;2022-08-01T09:48:24;101983.94;;;21.23;59.41
10806;BME280;5455;53.224;6.000;2022-08-01T09:50:55;101981.13;;;21.23;57.55
10806;BME280;5455;53.224;6.000;2022-08-01T09:53:46;101982.56;;;21.70;56.20
10806;BME280;5455;53.224;6.000;2022-08-01T09:56:20;101983.31;;;21.88;57.03
10806;BME280;5455;53.224;6.000;2022-08-01T09:58:58;101995.06;;;21.59;54.31
10806;BME280;5455;53.224;6.000;2022-08-01T10:04:18;101997.88;;;21.48;56.67
10806;BME280;5455;53.224;6.000;2022-08-01T10:06:47;102000.59;;;21.76;56.23
10806;BME280;5455;53.224;6.000;2022-08-01T10:09:29;101994.47;;;21.99;54.47
10806;BME280;5455;53.224;6.000;2022-08-01T10:12:07;101994.47;;;22.06;54.20
10806;BME280;5455;53.224;6.000;2022-08-01T10:14:42;102004.78;;;22.23;54.16
10806;BME280;5455;53.224;6.000;2022-08-01T10:17:14;102009.16;;;22.35;52.79
10806;BME280;5455;53.224;6.000;2022-08-01T10:19:46;102004.75;;;22.27;52.45
10806;BME280;5455;53.224;6.000;2022-08-01T10:22:14;101999.41;;;21.70;53.74
10806;BME280;5455;53.224;6.000;2022-08-01T10:24:46;101995.88;;;21.52;54.49
10806;BME280;5455;53.224;6.000;2022-08-01T10:27:15;101996.16;;;21.93;55.51
10806;BME280;5455;53.224;6.000;2022-08-01T10:30:04;101993.63;;;22.13;54.65
10806;BME280;5455;53.224;6.000;2022-08-01T10:32:50;101993.28;;;22.00;53.83
10806;BME280;5455;53.224;6.000;2022-08-01T10:35:21;101998.06;;;22.07;52.44
10806;BME280;5455;53.224;6.000;2022-08-01T10:38:09;102009.03;;;21.76;55.08
10806;BME280;5455;53.224;6.000;2022-08-01T10:40:40;101998.69;;;21.45;54.96
10806;BME280;5455;53.224;6.000;2022-08-01T10:43:12;102005.91;;;21.57;53.71
10806;BME280;5455;53.224;6.000;2022-08-01T10:45:49;102009.44;;;21.71;53.16
10806;BME280;5455;53.224;6.000;2022-08-01T10:48:44;102013.88;;;21.69;49.87
10806;BME280;5455;53.224;6.000;2022-08-01T10:51:14;102006.59;;;21.92;50.85
10806;BME280;5455;53.224;6.000;2022-08-01T10:53:52;102002.94;;;21.95;52.87
10806;BME280;5455;53.224;6.000;2022-08-01T10:56:22;102008.22;;;21.76;51.44
10806;BME280;5455;53.224;6.000;2022-08-01T10:59:03;102009.81;;;21.77;52.61
10806;BME280;5455;53.224;6.000;2022-08-01T11:01:37;102003.81;;;21.75;51.21
10806;BME280;5455;53.224;6.000;2022-08-01T11:04:14;102008.19;;;21.83;51.19
10806;BME280;5455;53.224;6.000;2022-08-01T11:06:54;102008.94;;;21.98;51.65
10806;BME280;5455;53.224;6.000;2022-08-01T11:17:35;102018.31;;;22.42;50.57
10806;BME280;5455;53.224;6.000;2022-08-01T11:20:09;102006.94;;;22.02;49.91
10806;BME280;5455;53.224;6.000;2022-08-01T11:28:25;102016.22;;;21.91;48.01
10806;BME280;5455;53.224;6.000;2022-08-01T11:38:39;102007.47;;;21.61;49.63
10806;BME280;5455;53.224;6.000;2022-08-01T11:46:51;102010.31;;;22.41;50.91
10806;BME280;5455;53.224;6.000;2022-08-01T11:52:06;102011.50;;;22.43;50.11
10806;BME280;5455;53.224;6.000;2022-08-01T11:54:43;102015.81;;;22.55;49.53
10806;BME280;5455;53.224;6.000;2022-08-01T11:57:19;102022.28;;;22.52;48.70
10806;BME280;5455;53.224;6.000;2022-08-01T11:59:54;102017.75;;;22.69;48.49
10806;BME280;5455;53.224;6.000;2022-08-01T12:02:37;102014.22;;;22.54;48.89
10806;BME280;5455;53.224;6.000;2022-08-01T12:05:09;102014.53;;;22.70;48.60
10806;BME280;5455;53.224;6.000;2022-08-01T12:07:41;102011.63;;;22.77;47.40
10806;BME280;5455;53.224;6.000;2022-08-01T12:10:16;102015.28;;;22.74;48.08
10806;BME280;5455;53.224;6.000;2022-08-01T12:12:48;102012.94;;;22.66;48.05
10806;BME280;5455;53.224;6.000;2022-08-01T12:15:17;102019.50;;;22.45;48.40
10806;BME280;5455;53.224;6.000;2022-08-01T12:17:49;102014.81;;;22.24;48.92
10806;BME280;5455;53.224;6.000;2022-08-01T12:20:27;102017.47;;;22.49;49.12
10806;BME280;5455;53.224;6.000;2022-08-01T12:23:05;102011.31;;;22.68;49.49
10806;BME280;5455;53.224;6.000;2022-08-01T12:25:34;102015.94;;;22.92;48.51
10806;BME280;5455;53.224;6.000;2022-08-01T12:28:03;102010.03;;;22.80;47.52
10806;BME280;5455;53.224;6.000;2022-08-01T12:30:32;102016.44;;;22.80;47.06
10806;BME280;5455;53.224;6.000;2022-08-01T12:33:07;102021.16;;;22.94;47.32
10806;BME280;5455;53.224;6.000;2022-08-01T12:35:35;102015.38;;;23.12;46.71
10806;BME280;5455;53.224;6.000;2022-08-01T12:38:14;102022.38;;;23.34;47.42
10806;BME280;5455;53.224;6.000;2022-08-01T12:40:43;102019.34;;;23.14;45.72
10806;BME280;5455;53.224;6.000;2022-08-01T12:43:16;102013.63;;;22.80;47.28
10806;BME280;5455;53.224;6.000;2022-08-01T12:45:56;102021.78;;;22.64;47.07
10806;BME280;5455;53.224;6.000;2022-08-01T12:48:26;102007.25;;;22.76;46.18
10806;BME280;5455;53.224;6.000;2022-08-01T12:50:55;102014.00;;;22.86;45.96
10806;BME280;5455;53.224;6.000;2022-08-01T12:53:25;102005.50;;;22.89;44.90
10806;BME280;5455;53.224;6.000;2022-08-01T12:56:07;102005.09;;;22.91;44.51
10806;BME280;5455;53.224;6.000;2022-08-01T12:58:34;102020.97;;;23.15;45.32
10806;BME280;5455;53.224;6.000;2022-08-01T13:01:11;102008.09;;;22.70;45.59
10806;BME280;5455;53.224;6.000;2022-08-01T13:03:40;102013.53;;;22.94;47.10
10806;BME280;5455;53.224;6.000;2022-08-01T13:06:17;102010.31;;;22.41;45.72
10806;BME280;5455;53.224;6.000;2022-08-01T13:08:45;102016.88;;;22.79;47.07
10806;BME280;5455;53.224;6.000;2022-08-01T13:11:14;102018.63;;;23.07;44.40
10806;BME280;5455;53.224;6.000;2022-08-01T13:13:46;102024.56;;;23.16;44.63
10806;BME280;5455;53.224;6.000;2022-08-01T13:16:24;102015.16;;;23.33;44.59
10806;BME280;5455;53.224;6.000;2022-08-01T13:19:12;102030.28;;;23.83;45.02
10806;BME280;5455;53.224;6.000;2022-08-01T13:21:53;102019.47;;;23.44;45.09
10806;BME280;5455;53.224;6.000;2022-08-01T13:24:28;102024.91;;;23.21;45.15
10806;BME280;5455;53.224;6.000;2022-08-01T13:26:57;102019.78;;;23.13;45.76
10806;BME280;5455;53.224;6.000;2022-08-01T13:29:30;102028.91;;;23.24;45.72
10806;BME280;5455;53.224;6.000;2022-08-01T13:31:58;102025.69;;;23.25;46.32
10806;BME280;5455;53.224;6.000;2022-08-01T13:34:32;102024.63;;;23.09;46.11
10806;BME280;5455;53.224;6.000;2022-08-01T13:37:01;102020.22;;;23.08;45.32
10806;BME280;5455;53.224;6.000;2022-08-01T13:39:33;102024.97;;;23.14;45.24
10806;BME280;5455;53.224;6.000;2022-08-01T13:42:12;102023.56;;;23.36;45.54
10806;BME280;5455;53.224;6.000;2022-08-01T13:44:45;102017.66;;;23.24;44.01
10806;BME280;5455;53.224;6.000;2022-08-01T13:47:12;102016.03;;;23.23;44.41
10806;BME280;5455;53.224;6.000;2022-08-01T13:49:43;102019.50;;;23.41;44.83
10806;BME280;5455;53.224;6.000;2022-08-01T13:52:10;102018.75;;;23.33;43.35
10806;BME280;5455;53.224;6.000;2022-08-01T13:54:37;102022.53;;;22.75;44.12
10806;BME280;5455;53.224;6.000;2022-08-01T13:57:04;102015.03;;;22.55;44.66
10806;BME280;5455;53.224;6.000;2022-08-01T13:59:31;102017.50;;;22.45;44.86
10806;BME280;5455;53.224;6.000;2022-08-01T14:01:58;102015.75;;;22.62;44.35
10806;BME280;5455;53.224;6.000;2022-08-01T14:04:25;102021.81;;;22.57;44.09